Terminal Aerodrome Forecast
Issued by NWS

Home | Current Version | Previous Version | Text Only | Print | Product List | Glossary Off
Versions: 1 2 3 4 5 6 7 8 9 10 11 12 13 14 15 16 17 18 19 20 21 22

625
FTUS43 KGRB 051734
TAFATW
TAF
KATW 051734Z 0518/0618 27005KT P6SM SCT100 BKN250
     FM052300 21005KT P6SM BKN100
     FM060500 22005KT 6SM -SN SCT025 BKN050
     FM061300 24008KT P6SM BKN025=

USA.gov is the U.S. government's official web portal to all federal, state and local government web resources and services.